createdAt,value
2022-11-12T00:01:05.431Z,5.67
2022-11-12T00:03:33.142Z,4.90
2022-11-12T00:06:00.892Z,5.03
2022-11-12T00:08:29.073Z,5.07
2022-11-12T00:10:57.092Z,5.90
2022-11-12T00:13:24.796Z,4.63
2022-11-12T00:15:53.871Z,5.47
2022-11-12T00:18:21.710Z,5.07
2022-11-12T00:20:49.672Z,5.10
2022-11-12T00:23:17.427Z,5.20
2022-11-12T00:25:45.110Z,5.70
2022-11-12T00:28:12.892Z,5.13
2022-11-12T00:30:42.076Z,4.93
2022-11-12T00:33:11.167Z,4.80
2022-11-12T00:35:38.894Z,4.67
2022-11-12T00:38:06.638Z,5.60
2022-11-12T00:40:34.470Z,5.83
2022-11-12T00:43:02.200Z,4.90
2022-11-12T00:45:29.931Z,5.67
2022-11-12T00:47:58.191Z,5.27
2022-11-12T00:50:27.219Z,5.63
2022-11-12T00:52:55.336Z,5.50
2022-11-12T00:55:23.035Z,5.73
2022-11-12T00:57:50.798Z,5.83
2022-11-12T01:00:19.703Z,5.73
2022-11-12T01:02:51.012Z,5.80
2022-11-12T01:05:20.316Z,5.87
2022-11-12T01:07:55.646Z,5.60
2022-11-12T01:10:23.874Z,5.30
2022-11-12T01:12:51.696Z,6.00
2022-11-12T01:15:19.547Z,5.70
2022-11-12T01:17:47.262Z,5.03
2022-11-12T01:20:14.978Z,5.23
2022-11-12T01:22:42.730Z,4.93
2022-11-12T01:25:11.836Z,4.77
2022-11-12T01:27:39.573Z,4.50
2022-11-12T01:30:08.430Z,4.77
2022-11-12T01:32:37.781Z,5.03
2022-11-12T01:35:06.692Z,5.30
2022-11-12T01:37:34.437Z,5.60
2022-11-12T01:40:02.190Z,4.80
2022-11-12T01:42:33.656Z,5.00
2022-11-12T01:45:01.359Z,5.47
2022-11-12T01:47:31.769Z,5.47
2022-11-12T01:50:06.124Z,5.47
2022-11-12T01:52:38.436Z,5.80
2022-11-12T01:55:08.833Z,5.33
2022-11-12T01:57:42.782Z,5.70
2022-11-12T02:00:13.647Z,6.33
2022-11-12T02:02:43.924Z,6.10
2022-11-12T02:05:12.719Z,6.53
2022-11-12T02:07:43.183Z,6.53
2022-11-12T02:10:11.486Z,5.70
2022-11-12T02:12:58.347Z,6.53
2022-11-12T02:15:26.750Z,6.90
2022-11-12T02:17:54.630Z,6.87
2022-11-12T02:20:22.409Z,7.10
2022-11-12T02:22:51.528Z,6.80
2022-11-12T02:25:23.316Z,6.90
2022-11-12T02:27:54.481Z,6.30
2022-11-12T02:30:32.779Z,6.13
2022-11-12T02:33:00.907Z,6.47
2022-11-12T02:35:28.870Z,6.10
2022-11-12T02:37:57.913Z,6.30
2022-11-12T02:40:25.641Z,6.30
2022-11-12T02:42:53.488Z,6.37
2022-11-12T02:45:21.394Z,6.13
2022-11-12T02:47:49.181Z,6.13
2022-11-12T02:50:17.556Z,6.37
2022-11-12T02:52:45.432Z,6.20
2022-11-12T02:55:14.915Z,6.70
2022-11-12T02:57:42.889Z,6.27
2022-11-12T03:00:12.987Z,6.60
2022-11-12T03:02:42.951Z,6.20
2022-11-12T03:05:11.733Z,6.23
2022-11-12T03:07:39.669Z,5.33
2022-11-12T03:10:07.899Z,5.67
2022-11-12T03:12:36.962Z,5.77
2022-11-12T03:15:05.476Z,6.33
2022-11-12T03:17:35.627Z,6.13
2022-11-12T03:20:03.449Z,5.23
2022-11-12T03:22:31.201Z,4.53
2022-11-12T03:24:58.896Z,4.93
2022-11-12T03:27:26.673Z,4.93
2022-11-12T03:29:55.725Z,4.90
2022-11-12T03:32:23.497Z,5.10
2022-11-12T03:34:55.233Z,4.90
2022-11-12T03:37:23.423Z,5.53
2022-11-12T03:39:51.115Z,5.17
2022-11-12T03:42:18.861Z,6.00
2022-11-12T03:44:46.542Z,5.30
2022-11-12T03:47:15.673Z,5.53
2022-11-12T03:49:43.398Z,5.50
2022-11-12T03:52:11.110Z,5.53
2022-11-12T03:54:38.797Z,5.90
2022-11-12T03:57:06.531Z,5.73
2022-11-12T03:59:34.231Z,6.43
2022-11-12T04:02:01.949Z,5.40
2022-11-12T04:04:59.842Z,5.67
2022-11-12T04:07:45.050Z,5.53
2022-11-12T04:10:13.082Z,5.70
2022-11-12T04:12:58.842Z,6.17
2022-11-12T04:15:26.621Z,5.80
2022-11-12T04:18:11.806Z,6.00
2022-11-12T04:21:00.845Z,5.67
2022-11-12T04:23:28.609Z,5.70
2022-11-12T04:26:14.012Z,5.60
2022-11-12T04:29:01.935Z,5.37
2022-11-12T04:31:28.738Z,6.17
2022-11-12T04:34:16.453Z,5.93
2022-11-12T04:36:45.555Z,5.60
2022-11-12T04:39:13.321Z,5.60
2022-11-12T04:41:58.502Z,5.13
2022-11-12T04:44:43.910Z,4.67
2022-11-12T04:47:11.646Z,4.93
2022-11-12T04:49:39.416Z,4.43
2022-11-12T04:52:08.533Z,6.17
2022-11-12T04:54:36.270Z,7.43
2022-11-12T04:57:04.073Z,5.97
2022-11-12T04:59:31.800Z,5.30
2022-11-12T05:01:59.586Z,5.40
2022-11-12T05:04:28.884Z,6.77
2022-11-12T05:06:57.193Z,5.47
2022-11-12T05:09:27.966Z,5.50
2022-11-12T05:11:57.095Z,5.20
2022-11-12T05:14:25.525Z,4.97
2022-11-12T05:16:53.511Z,4.90
2022-11-12T05:19:21.237Z,5.20
2022-11-12T05:22:08.864Z,4.63
2022-11-12T05:24:42.828Z,4.87
2022-11-12T05:27:13.812Z,4.50
2022-11-12T05:29:42.371Z,4.53
2022-11-12T05:32:13.024Z,5.00
2022-11-12T05:34:40.820Z,5.40
2022-11-12T05:37:10.136Z,6.40
2022-11-12T05:39:38.091Z,4.77
2022-11-12T05:42:14.637Z,4.40
2022-11-12T05:44:42.472Z,4.80
2022-11-12T05:47:10.213Z,4.73
2022-11-12T05:49:37.935Z,5.40
2022-11-12T05:52:05.926Z,5.50
2022-11-12T05:54:33.646Z,6.67
2022-11-12T05:57:01.373Z,6.03
2022-11-12T05:59:30.395Z,4.97
2022-11-12T06:01:58.121Z,6.03
2022-11-12T06:04:26.241Z,7.03
2022-11-12T06:06:54.078Z,6.10
2022-11-12T06:09:21.949Z,6.13
2022-11-12T06:11:50.065Z,5.77
2022-11-12T06:14:17.790Z,5.57
2022-11-12T06:16:46.945Z,5.40
2022-11-12T06:19:14.719Z,5.60
2022-11-12T06:21:42.461Z,5.43
2022-11-12T06:24:10.571Z,5.10
2022-11-12T06:26:38.504Z,4.67
2022-11-12T06:29:06.214Z,4.90
2022-11-12T06:31:33.967Z,4.80
2022-11-12T06:34:03.229Z,5.13
2022-11-12T06:36:31.016Z,5.07
2022-11-12T06:38:58.710Z,4.60
2022-11-12T06:41:26.421Z,4.73
2022-11-12T06:43:54.145Z,4.80
2022-11-12T06:46:21.881Z,4.70
2022-11-12T06:48:49.668Z,4.93
2022-11-12T06:51:20.490Z,4.80
2022-11-12T06:53:48.909Z,4.50
2022-11-12T06:56:17.051Z,4.30
2022-11-12T06:58:44.853Z,4.80
2022-11-12T07:01:14.624Z,4.70
2022-11-12T07:03:44.019Z,4.30
2022-11-12T07:06:14.142Z,4.47
2022-11-12T07:08:43.480Z,4.50
2022-11-12T07:11:11.684Z,5.27
2022-11-12T07:13:39.908Z,9.40
2022-11-12T07:16:09.349Z,4.23
2022-11-12T07:18:37.086Z,3.93
2022-11-12T07:21:06.856Z,4.30
2022-11-12T07:23:36.304Z,4.83
2022-11-12T07:26:07.148Z,4.73
2022-11-12T07:28:35.279Z,5.00
2022-11-12T07:31:04.489Z,15.80
2022-11-12T07:33:32.365Z,24.87
2022-11-12T07:36:01.120Z,33.33
2022-11-12T07:38:29.900Z,24.10
2022-11-12T07:41:01.542Z,9.50
2022-11-12T07:43:31.677Z,12.70
2022-11-12T07:46:00.308Z,9.60
2022-11-12T07:48:28.488Z,7.57
2022-11-12T07:51:01.727Z,6.77
2022-11-12T07:53:29.641Z,6.43
2022-11-12T07:56:00.256Z,5.60
2022-11-12T07:58:31.539Z,5.83
2022-11-12T08:01:00.192Z,5.90
2022-11-12T08:03:27.895Z,6.27
2022-11-12T08:05:55.637Z,6.43
2022-11-12T08:08:23.368Z,6.50
2022-11-12T08:10:55.703Z,7.30
2022-11-12T08:13:23.491Z,6.87
2022-11-12T08:15:52.997Z,6.90
2022-11-12T08:18:20.710Z,6.37
2022-11-12T08:20:48.435Z,6.87
2022-11-12T08:23:16.155Z,6.87
2022-11-12T08:25:43.929Z,7.23
2022-11-12T08:28:11.729Z,7.20
2022-11-12T08:30:39.463Z,7.47
2022-11-12T08:33:08.588Z,8.80
2022-11-12T08:35:39.195Z,7.93
2022-11-12T08:38:07.657Z,7.30
2022-11-12T08:40:35.410Z,7.67
2022-11-12T08:43:05.234Z,7.23
2022-11-12T08:45:34.336Z,6.93
2022-11-12T08:48:03.005Z,6.70
2022-11-12T08:50:32.457Z,6.93
2022-11-12T08:53:01.793Z,6.70
2022-11-12T08:55:29.682Z,6.80
2022-11-12T08:58:01.866Z,6.67
2022-11-12T09:00:30.263Z,6.60
2022-11-12T09:03:01.093Z,6.57
2022-11-12T09:05:29.387Z,6.77
2022-11-12T09:08:03.267Z,6.70
2022-11-12T09:10:31.290Z,6.40
2022-11-12T09:12:59.009Z,6.50
2022-11-12T09:15:42.726Z,8.87
2022-11-12T09:18:14.313Z,8.10
2022-11-12T09:20:42.739Z,7.80
2022-11-12T09:23:13.720Z,6.87
2022-11-12T09:25:42.048Z,6.70
2022-11-12T09:28:10.909Z,6.33
2022-11-12T09:30:39.857Z,6.63
2022-11-12T09:33:07.557Z,6.97
2022-11-12T09:35:35.316Z,6.30
2022-11-12T09:38:03.014Z,6.00
2022-11-12T09:40:54.125Z,6.37
2022-11-12T09:43:26.520Z,5.90
2022-11-12T09:46:13.959Z,6.67
2022-11-12T09:48:49.527Z,6.87
2022-11-12T09:51:24.223Z,5.73
2022-11-12T09:53:57.109Z,6.10
2022-11-12T09:56:28.235Z,7.20
2022-11-12T09:58:56.295Z,7.23
2022-11-12T10:01:33.416Z,6.45
2022-11-12T10:04:23.063Z,6.03
2022-11-12T10:06:56.140Z,5.20
2022-11-12T10:09:30.874Z,5.40
2022-11-12T10:12:24.521Z,5.97
2022-11-12T10:15:24.493Z,5.97
2022-11-12T10:18:02.375Z,5.90
2022-11-12T10:20:38.774Z,5.70
2022-11-12T10:23:18.512Z,6.50
2022-11-12T10:25:49.535Z,6.53
2022-11-12T10:28:28.040Z,6.67
2022-11-12T10:31:14.373Z,6.97
2022-11-12T10:33:42.123Z,7.90
2022-11-12T10:36:29.806Z,7.13
2022-11-12T10:38:57.715Z,7.03
2022-11-12T10:41:27.418Z,8.80
2022-11-12T10:43:59.118Z,8.53
2022-11-12T10:46:28.962Z,10.00
2022-11-12T10:49:03.148Z,9.20
2022-11-12T10:51:33.236Z,9.90
2022-11-12T10:54:21.234Z,11.53
2022-11-12T10:56:55.156Z,10.55
2022-11-12T10:59:25.581Z,11.70
2022-11-12T11:01:58.519Z,11.43
2022-11-12T11:04:31.561Z,12.60
2022-11-12T11:07:02.161Z,12.50
2022-11-12T11:09:30.222Z,13.23
2022-11-12T11:11:58.074Z,14.07
2022-11-12T11:14:32.685Z,13.32
2022-11-12T11:17:04.451Z,13.20
2022-11-12T11:19:38.706Z,14.82
2022-11-12T11:22:29.753Z,15.05
2022-11-12T11:25:16.241Z,14.10
2022-11-12T11:27:55.139Z,14.35
2022-11-12T11:30:24.714Z,13.82
2022-11-12T11:33:11.005Z,13.25
2022-11-12T11:35:53.960Z,14.80
2022-11-12T11:38:32.847Z,14.40
2022-11-12T11:41:23.979Z,14.65
2022-11-12T11:44:01.778Z,13.75
2022-11-12T11:46:44.457Z,14.55
2022-11-12T11:49:29.223Z,14.82
2022-11-12T11:52:03.957Z,14.93
2022-11-12T11:54:57.833Z,14.73
2022-11-12T11:57:43.605Z,15.32
2022-11-12T12:00:17.694Z,14.60
2022-11-12T12:03:32.863Z,16.23
2022-11-12T12:06:16.502Z,14.20
2022-11-12T12:09:00.435Z,14.45
2022-11-12T12:11:35.506Z,14.35
2022-11-12T12:14:20.620Z,13.95
2022-11-12T12:16:57.607Z,13.20
2022-11-12T12:19:45.402Z,13.85
2022-11-12T12:22:18.229Z,13.50
2022-11-12T12:24:50.887Z,13.85
2022-11-12T12:27:22.718Z,14.50
2022-11-12T12:29:54.181Z,13.82
2022-11-12T12:32:28.007Z,12.25
2022-11-12T12:35:04.461Z,11.77
2022-11-12T12:37:39.222Z,13.25
2022-11-12T12:40:18.577Z,11.77
2022-11-12T12:42:49.605Z,11.38
2022-11-12T12:45:39.293Z,12.57
2022-11-12T12:48:12.433Z,11.57
2022-11-12T12:50:43.244Z,10.48
2022-11-12T12:53:33.073Z,11.98
2022-11-12T12:56:02.774Z,10.68
2022-11-12T12:58:32.608Z,11.90
2022-11-12T13:01:03.567Z,7.25
2022-11-12T13:03:54.520Z,7.50
2022-11-12T13:06:30.049Z,8.32
2022-11-12T13:09:01.784Z,7.88
2022-11-12T13:12:07.820Z,7.40
2022-11-12T13:15:08.292Z,6.88
2022-11-12T13:17:51.451Z,7.75
2022-11-12T13:20:37.640Z,6.88
2022-11-12T13:23:12.254Z,9.45
2022-11-12T13:25:40.307Z,9.75
2022-11-12T13:28:10.286Z,9.13
2022-11-12T13:30:58.865Z,8.65
2022-11-12T13:33:38.305Z,8.98
2022-11-12T13:36:33.204Z,8.15
2022-11-12T13:39:15.337Z,8.88
2022-11-12T13:42:00.761Z,8.05
2022-11-12T13:44:29.682Z,8.80
2022-11-12T13:46:57.752Z,9.23
2022-11-12T13:49:25.489Z,9.82
2022-11-12T13:51:56.671Z,9.77
2022-11-12T13:54:35.466Z,9.95
2022-11-12T13:57:17.500Z,8.75
2022-11-12T13:59:47.928Z,9.20
2022-11-12T14:02:21.913Z,9.75
2022-11-12T14:04:50.066Z,8.85
2022-11-12T14:07:36.592Z,9.63
2022-11-12T14:10:12.695Z,9.10
2022-11-12T14:13:03.267Z,9.48
2022-11-12T14:15:47.529Z,9.30
2022-11-12T14:18:23.387Z,8.25
2022-11-12T14:20:51.361Z,9.77
2022-11-12T14:23:24.758Z,9.57
2022-11-12T14:25:56.677Z,9.02
2022-11-12T14:28:27.841Z,7.97
2022-11-12T14:30:56.617Z,9.53
2022-11-12T14:33:26.752Z,8.23
2022-11-12T14:35:56.028Z,8.60
2022-11-12T14:38:29.282Z,8.00
2022-11-12T14:41:02.267Z,9.83
2022-11-12T14:43:37.271Z,9.90
2022-11-12T14:46:07.581Z,9.13
2022-11-12T14:48:51.289Z,9.27
2022-11-12T14:51:20.119Z,9.10
2022-11-12T14:53:52.187Z,9.60
2022-11-12T14:56:34.185Z,8.97
2022-11-12T14:59:03.500Z,9.53
2022-11-12T15:04:25.896Z,10.70
2022-11-12T15:06:54.808Z,10.80
2022-11-12T15:09:34.565Z,10.10
2022-11-12T15:12:05.102Z,11.07
2022-11-12T15:14:34.286Z,10.40
2022-11-12T15:17:04.731Z,10.27
2022-11-12T15:19:33.139Z,11.60
2022-11-12T15:22:02.584Z,9.27
2022-11-12T15:24:32.803Z,11.30
2022-11-12T15:27:04.046Z,12.60
2022-11-12T15:29:34.542Z,14.20
2022-11-12T15:32:04.872Z,15.80
2022-11-12T15:34:49.623Z,13.33
2022-11-12T15:37:26.484Z,17.60
2022-11-12T15:39:57.605Z,16.00
2022-11-12T15:42:31.157Z,14.57
2022-11-12T15:45:01.422Z,15.53
2022-11-12T15:47:29.762Z,14.90
2022-11-12T15:49:59.554Z,15.40
2022-11-12T15:52:27.305Z,13.83
2022-11-12T15:54:55.464Z,13.43
2022-11-12T15:57:27.699Z,16.03
2022-11-12T16:00:07.448Z,15.27
2022-11-12T16:02:35.635Z,14.60
2022-11-12T16:05:03.419Z,14.20
2022-11-12T16:07:31.182Z,14.80
2022-11-12T16:09:58.874Z,14.17
2022-11-12T16:12:28.617Z,13.90
2022-11-12T16:14:56.585Z,14.63
2022-11-12T16:17:24.413Z,13.40
2022-11-12T16:19:52.170Z,13.33
2022-11-12T16:22:19.914Z,14.80
2022-11-12T16:24:47.825Z,14.33
2022-11-12T16:27:16.532Z,14.73
2022-11-12T16:29:45.576Z,13.97
2022-11-12T16:32:14.099Z,12.83
2022-11-12T16:34:41.807Z,16.53
2022-11-12T16:37:12.717Z,15.60
2022-11-12T16:39:40.619Z,15.83
2022-11-12T16:42:10.596Z,16.27
2022-11-12T16:44:38.305Z,17.10
2022-11-12T16:47:07.493Z,15.70
2022-11-12T16:49:38.608Z,15.83
2022-11-12T16:52:06.744Z,15.30
2022-11-12T16:54:34.459Z,14.73
2022-11-12T16:57:02.396Z,17.10
2022-11-12T16:59:30.161Z,14.47
2022-11-12T17:01:57.859Z,16.13
2022-11-12T17:04:26.954Z,17.80
2022-11-12T17:06:54.732Z,20.00
2022-11-12T17:09:22.478Z,18.43
2022-11-12T17:11:50.226Z,19.87
2022-11-12T17:14:18.408Z,18.43
2022-11-12T17:16:46.372Z,19.80
2022-11-12T17:19:14.244Z,20.50
2022-11-12T17:21:44.476Z,22.00
2022-11-12T17:24:12.194Z,20.97
2022-11-12T17:26:39.925Z,18.77
2022-11-12T17:29:08.463Z,18.30
2022-11-12T17:31:36.881Z,20.10
2022-11-12T17:34:06.377Z,24.00
2022-11-12T17:36:36.928Z,22.33
2022-11-12T17:39:11.100Z,21.27
2022-11-12T17:41:39.230Z,22.57
2022-11-12T17:44:07.190Z,25.43
2022-11-12T17:46:36.048Z,22.70
2022-11-12T17:49:03.879Z,24.33
2022-11-12T17:51:31.638Z,22.27
2022-11-12T17:53:59.472Z,21.80
2022-11-12T17:56:31.824Z,19.63
2022-11-12T17:59:04.312Z,19.00
2022-11-12T18:01:33.640Z,18.67
2022-11-12T18:04:01.949Z,18.23
2022-11-12T18:06:31.802Z,25.20
2022-11-12T18:09:01.819Z,22.70
2022-11-12T18:11:33.215Z,21.47
2022-11-12T18:14:07.370Z,25.53
2022-11-12T18:16:35.140Z,26.23
2022-11-12T18:19:03.044Z,24.80
2022-11-12T18:21:30.975Z,24.20
2022-11-12T18:23:58.758Z,25.27
2022-11-12T18:26:26.479Z,24.03
2022-11-12T18:28:56.493Z,28.80
2022-11-12T18:31:25.466Z,27.33
2022-11-12T18:33:54.061Z,27.23
2022-11-12T18:36:24.232Z,27.30
2022-11-12T18:38:52.767Z,25.20
2022-11-12T18:41:25.596Z,24.73
2022-11-12T18:43:54.759Z,27.27
2022-11-12T18:46:23.168Z,26.77
2022-11-12T18:48:51.329Z,25.33
2022-11-12T18:51:20.266Z,22.07
2022-11-12T18:53:48.389Z,22.57
2022-11-12T18:56:17.945Z,23.13
2022-11-12T18:58:45.874Z,24.87
2022-11-12T19:01:16.860Z,28.00
2022-11-12T19:03:45.298Z,29.33
2022-11-12T19:06:14.141Z,27.80
2022-11-12T19:08:42.528Z,27.67
2022-11-12T19:11:11.785Z,27.40
2022-11-12T19:13:40.077Z,24.50
2022-11-12T19:16:11.720Z,24.73
2022-11-12T19:18:42.129Z,23.07
2022-11-12T19:21:11.734Z,20.80
2022-11-12T19:23:41.419Z,22.93
2022-11-12T19:26:12.264Z,24.47
2022-11-12T19:28:40.480Z,24.53
2022-11-12T19:31:11.333Z,26.07
2022-11-12T19:33:40.637Z,24.83
2022-11-12T19:36:10.584Z,21.47
2022-11-12T19:38:38.319Z,22.60
2022-11-12T19:41:06.447Z,21.67
2022-11-12T19:43:34.898Z,19.97
2022-11-12T19:46:03.221Z,21.27
2022-11-12T19:48:31.587Z,20.77
2022-11-12T19:51:03.618Z,20.37
2022-11-12T19:53:32.074Z,20.53
2022-11-12T19:56:01.314Z,19.90
2022-11-12T19:58:29.709Z,20.23
2022-11-12T20:01:04.889Z,21.70
2022-11-12T20:03:32.943Z,18.80
2022-11-12T20:06:03.739Z,17.47
2022-11-12T20:08:31.889Z,20.53
2022-11-12T20:11:00.421Z,21.27
2022-11-12T20:13:28.496Z,23.63
2022-11-12T20:15:56.381Z,19.67
2022-11-12T20:18:24.720Z,19.03
2022-11-12T20:20:54.189Z,19.00
2022-11-12T20:23:25.032Z,19.63
2022-11-12T20:25:53.437Z,18.90
2022-11-12T20:28:21.255Z,19.23
2022-11-12T20:30:49.381Z,19.67
2022-11-12T20:33:17.195Z,20.90
2022-11-12T20:35:45.399Z,19.97
2022-11-12T20:38:13.129Z,19.53
2022-11-12T20:40:42.259Z,21.20
2022-11-12T20:43:09.971Z,19.27
2022-11-12T20:45:37.745Z,20.33
2022-11-12T20:48:06.786Z,20.53
2022-11-12T20:50:34.547Z,23.07
2022-11-12T20:53:02.312Z,21.20
2022-11-12T20:55:32.392Z,21.80
2022-11-12T20:58:01.546Z,19.73
2022-11-12T21:00:29.268Z,20.90
2022-11-12T21:02:57.109Z,20.40
2022-11-12T21:05:25.353Z,21.40
2022-11-12T21:07:53.050Z,21.50
2022-11-12T21:10:20.781Z,22.07
2022-11-12T21:12:48.478Z,22.70
2022-11-12T21:15:17.930Z,21.07
2022-11-12T21:17:45.661Z,20.77
2022-11-12T21:20:13.403Z,24.57
2022-11-12T21:22:41.162Z,23.43
2022-11-12T21:25:09.266Z,25.57
2022-11-12T21:27:37.179Z,24.73
2022-11-12T21:30:05.522Z,24.17
2022-11-12T21:32:34.543Z,27.37
2022-11-12T21:35:02.258Z,25.27
2022-11-12T21:37:29.989Z,26.97
2022-11-12T21:39:57.739Z,25.20
2022-11-12T21:42:25.489Z,24.57
2022-11-12T21:44:53.257Z,25.43
2022-11-12T21:47:21.032Z,24.33
2022-11-12T21:49:50.128Z,25.47
2022-11-12T21:52:18.103Z,23.33
2022-11-12T21:54:45.848Z,25.20
2022-11-12T21:57:18.476Z,28.47
2022-11-12T21:59:46.620Z,25.37
2022-11-12T22:02:14.533Z,28.60
2022-11-12T22:04:42.348Z,31.87
2022-11-12T22:07:11.460Z,27.53
2022-11-12T22:09:39.205Z,30.83
2022-11-12T22:12:07.110Z,31.77
2022-11-12T22:14:34.865Z,30.93
2022-11-12T22:17:02.627Z,32.63
2022-11-12T22:19:30.786Z,29.83
2022-11-12T22:21:58.482Z,29.20
2022-11-12T22:24:27.550Z,29.67
2022-11-12T22:26:55.402Z,27.17
2022-11-12T22:29:23.154Z,31.37
2022-11-12T22:31:50.839Z,30.07
2022-11-12T22:34:18.549Z,29.17
2022-11-12T22:36:46.269Z,28.30
2022-11-12T22:39:14.004Z,26.73
2022-11-12T22:41:43.090Z,25.50
2022-11-12T22:44:10.873Z,28.63
2022-11-12T22:46:38.580Z,28.20
2022-11-12T22:49:06.643Z,25.60
2022-11-12T22:51:35.616Z,26.67
2022-11-12T22:54:05.214Z,26.97
2022-11-12T22:56:34.188Z,25.70
2022-11-12T22:59:04.811Z,25.43
2022-11-12T23:01:34.208Z,27.00
2022-11-12T23:04:03.615Z,26.40
2022-11-12T23:06:32.402Z,23.87
2022-11-12T23:09:01.773Z,25.97
2022-11-12T23:11:29.571Z,23.90
2022-11-12T23:13:57.723Z,22.60
2022-11-12T23:16:30.652Z,24.07
2022-11-12T23:18:59.139Z,25.23
2022-11-12T23:21:29.131Z,22.90
2022-11-12T23:23:57.617Z,26.80
2022-11-12T23:26:27.459Z,22.63
2022-11-12T23:28:55.198Z,25.80
2022-11-12T23:31:25.028Z,25.10
2022-11-12T23:33:55.955Z,21.97
2022-11-12T23:36:24.688Z,24.10
2022-11-12T23:38:52.884Z,22.73
2022-11-12T23:41:23.387Z,21.33
2022-11-12T23:43:51.252Z,20.93
2022-11-12T23:46:19.305Z,20.23
2022-11-12T23:48:47.025Z,19.53
2022-11-12T23:51:20.766Z,21.50
2022-11-12T23:53:48.891Z,21.97
2022-11-12T23:56:18.794Z,20.93
2022-11-12T23:58:46.761Z,22.77
